createdAt,value
2023-04-10T00:01:01.557Z,31.60
2023-04-10T00:03:27.677Z,31.50
2023-04-10T00:05:54.030Z,29.88
2023-04-10T00:08:23.737Z,31.95
2023-04-10T00:10:49.650Z,32.45
2023-04-10T00:13:15.845Z,30.48
2023-04-10T00:15:41.838Z,31.92
2023-04-10T00:18:07.823Z,31.75
2023-04-10T00:20:33.557Z,32.95
2023-04-10T00:22:59.369Z,30.27
2023-04-10T00:25:25.825Z,29.02
2023-04-10T00:27:53.415Z,31.33
2023-04-10T00:30:20.467Z,33.35
2023-04-10T00:32:46.412Z,29.10
2023-04-10T00:35:12.191Z,28.55
2023-04-10T00:37:38.066Z,30.13
2023-04-10T00:40:05.343Z,28.35
2023-04-10T00:42:31.442Z,32.15
2023-04-10T00:44:57.457Z,30.08
2023-04-10T00:47:23.406Z,30.30
2023-04-10T00:49:49.763Z,30.05
2023-04-10T00:52:15.594Z,31.23
2023-04-10T00:54:41.404Z,32.53
2023-04-10T00:57:07.287Z,29.80
2023-04-10T00:59:33.053Z,30.80
2023-04-10T01:01:59.024Z,32.83
2023-04-10T01:04:27.852Z,32.40
2023-04-10T01:06:58.791Z,31.88
2023-04-10T01:11:50.565Z,32.80
2023-04-10T01:14:27.231Z,32.25
2023-04-10T01:16:55.902Z,32.10
2023-04-10T01:19:24.650Z,32.92
2023-04-10T01:21:50.727Z,33.03
2023-04-10T01:24:37.033Z,31.73
2023-04-10T01:27:02.748Z,32.35
2023-04-10T01:29:28.882Z,31.15
2023-04-10T01:32:00.527Z,34.45
2023-04-10T01:34:35.958Z,32.00
2023-04-10T01:37:03.935Z,29.17
2023-04-10T01:39:30.241Z,30.70
2023-04-10T01:41:57.603Z,33.33
2023-04-10T01:44:27.260Z,31.30
2023-04-10T01:46:54.762Z,30.05
2023-04-10T01:49:20.998Z,31.05
2023-04-10T01:51:47.430Z,33.83
2023-04-10T01:54:13.516Z,31.98
2023-04-10T01:56:40.503Z,30.17
2023-04-10T01:59:06.745Z,28.85
2023-04-10T02:01:32.564Z,32.95
2023-04-10T02:03:58.981Z,30.85
2023-04-10T02:06:37.101Z,31.40
2023-04-10T02:09:02.883Z,32.53
2023-04-10T02:11:36.840Z,32.53
2023-04-10T02:14:05.270Z,31.98
2023-04-10T02:16:31.599Z,31.60
2023-04-10T02:18:58.479Z,30.17
2023-04-10T02:21:24.242Z,31.50
2023-04-10T02:23:50.072Z,31.67
2023-04-10T02:26:15.786Z,30.58
2023-04-10T02:28:41.556Z,31.45
2023-04-10T02:31:07.365Z,31.25
2023-04-10T02:33:33.136Z,30.88
2023-04-10T02:35:59.751Z,32.72
2023-04-10T02:38:25.699Z,35.28
2023-04-10T02:40:51.434Z,31.13
2023-04-10T02:43:17.198Z,30.33
2023-04-10T02:45:43.182Z,31.83
2023-04-10T02:48:10.349Z,30.77
2023-04-10T02:50:36.284Z,27.73
2023-04-10T02:53:02.066Z,30.33
2023-04-10T02:55:27.780Z,31.15
2023-04-10T02:57:53.488Z,28.85
2023-04-10T03:00:19.406Z,31.17
2023-04-10T03:02:45.515Z,35.17
2023-04-10T03:05:11.436Z,35.20
2023-04-10T03:07:37.202Z,35.47
2023-04-10T03:10:02.994Z,36.50
2023-04-10T03:12:28.769Z,34.60
2023-04-10T03:14:54.492Z,34.28
2023-04-10T03:17:20.280Z,35.13
2023-04-10T03:19:45.996Z,38.13
2023-04-10T03:22:11.749Z,37.83
2023-04-10T03:24:37.610Z,37.22
2023-04-10T03:27:03.510Z,37.42
2023-04-10T03:29:29.268Z,41.70
2023-04-10T03:31:55.277Z,41.80
2023-04-10T03:34:21.110Z,39.67
2023-04-10T03:36:47.285Z,36.65
2023-04-10T03:39:13.032Z,35.45
2023-04-10T03:41:38.758Z,36.92
2023-04-10T03:44:04.750Z,33.70
2023-04-10T03:46:30.504Z,32.15
2023-04-10T03:48:56.254Z,34.38
2023-04-10T03:51:24.965Z,35.03
2023-04-10T03:53:50.701Z,30.33
2023-04-10T03:56:16.691Z,30.08
2023-04-10T03:58:42.407Z,30.05
2023-04-10T04:01:08.550Z,27.08
2023-04-10T04:03:34.563Z,28.27
2023-04-10T04:06:00.547Z,29.65
2023-04-10T04:08:26.287Z,28.40
2023-04-10T04:10:52.078Z,29.52
2023-04-10T04:13:17.833Z,28.58
2023-04-10T04:15:43.637Z,28.35
2023-04-10T04:18:10.054Z,28.13
2023-04-10T04:20:35.819Z,27.67
2023-04-10T04:23:01.536Z,28.30
2023-04-10T04:25:27.277Z,25.73
2023-04-10T04:27:53.015Z,27.25
2023-04-10T04:30:18.744Z,26.35
2023-04-10T04:32:44.629Z,25.77
2023-04-10T04:35:10.432Z,28.77
2023-04-10T04:37:36.152Z,26.55
2023-04-10T04:40:02.511Z,26.13
2023-04-10T04:42:28.243Z,25.17
2023-04-10T04:44:53.964Z,26.15
2023-04-10T04:47:19.887Z,24.67
2023-04-10T04:49:45.634Z,25.67
2023-04-10T04:52:11.441Z,27.05
2023-04-10T04:54:37.168Z,24.75
2023-04-10T04:57:02.978Z,23.98
2023-04-10T04:59:28.744Z,24.25
2023-04-10T05:01:54.879Z,23.83
2023-04-10T05:04:20.969Z,22.10
2023-04-10T05:06:46.957Z,24.33
2023-04-10T05:09:12.810Z,23.38
2023-04-10T05:11:38.678Z,23.08
2023-04-10T05:14:04.997Z,22.05
2023-04-10T05:16:30.853Z,23.17
2023-04-10T05:18:56.992Z,21.30
2023-04-10T05:21:23.106Z,21.75
2023-04-10T05:23:48.924Z,18.42
2023-04-10T05:26:14.789Z,19.10
2023-04-10T05:28:40.639Z,17.08
2023-04-10T05:31:06.540Z,17.38
2023-04-10T05:33:32.310Z,17.50
2023-04-10T05:35:58.075Z,18.70
2023-04-10T05:38:24.309Z,20.90
2023-04-10T05:40:50.222Z,18.50
2023-04-10T05:43:16.152Z,19.25
2023-04-10T05:45:47.954Z,17.50
2023-04-10T05:48:13.788Z,16.85
2023-04-10T05:50:39.810Z,17.20
2023-04-10T05:53:05.846Z,16.25
2023-04-10T05:55:31.712Z,16.23
2023-04-10T05:57:57.573Z,14.85
2023-04-10T06:00:23.426Z,15.68
2023-04-10T06:02:49.215Z,15.75
2023-04-10T06:05:15.124Z,16.25
2023-04-10T06:07:40.862Z,15.73
2023-04-10T06:10:07.272Z,16.23
2023-04-10T06:12:33.604Z,18.60
2023-04-10T06:15:00.755Z,16.90
2023-04-10T06:17:27.767Z,16.70
2023-04-10T06:19:53.716Z,17.20
2023-04-10T06:22:20.714Z,18.65
2023-04-10T06:24:46.554Z,18.10
2023-04-10T06:27:12.342Z,17.67
2023-04-10T06:29:38.189Z,17.73
2023-04-10T06:32:04.044Z,16.85
2023-04-10T06:34:29.851Z,16.52
2023-04-10T06:36:56.028Z,16.00
2023-04-10T06:39:22.690Z,17.25
2023-04-10T06:41:48.525Z,18.08
2023-04-10T06:44:14.300Z,16.75
2023-04-10T06:46:58.613Z,16.52
2023-04-10T06:49:24.742Z,17.02
2023-04-10T06:51:54.103Z,17.15
2023-04-10T06:54:20.038Z,16.88
2023-04-10T06:56:45.921Z,16.55
2023-04-10T06:59:11.654Z,16.83
2023-04-10T07:01:37.653Z,16.45
2023-04-10T07:04:04.495Z,18.77
2023-04-10T07:06:31.059Z,17.73
2023-04-10T07:08:56.875Z,18.27
2023-04-10T07:11:22.928Z,19.20
2023-04-10T07:13:52.774Z,16.75
2023-04-10T07:16:25.209Z,17.30
2023-04-10T07:18:51.110Z,18.90
2023-04-10T07:21:16.867Z,18.05
2023-04-10T07:23:42.765Z,18.10
2023-04-10T07:26:08.594Z,18.30
2023-04-10T07:28:34.529Z,18.77
2023-04-10T07:31:00.521Z,17.40
2023-04-10T07:33:26.487Z,18.10
2023-04-10T07:35:52.758Z,18.45
2023-04-10T07:38:18.900Z,17.45
2023-04-10T07:40:44.666Z,19.83
2023-04-10T07:43:10.450Z,20.80
2023-04-10T07:45:36.365Z,20.63
2023-04-10T07:48:02.918Z,21.63
2023-04-10T07:50:29.924Z,21.13
2023-04-10T07:52:55.940Z,20.15
2023-04-10T07:55:21.823Z,21.27
2023-04-10T07:57:47.576Z,22.02
2023-04-10T08:00:13.596Z,20.63
2023-04-10T08:02:40.856Z,20.85
2023-04-10T08:05:07.107Z,21.05
2023-04-10T08:07:33.372Z,21.58
2023-04-10T08:09:59.242Z,21.27
2023-04-10T08:12:25.728Z,21.35
2023-04-10T08:14:51.757Z,21.40
2023-04-10T08:17:17.614Z,20.75
2023-04-10T08:19:43.576Z,22.15
2023-04-10T08:22:09.660Z,20.70
2023-04-10T08:24:35.604Z,21.98
2023-04-10T08:27:01.348Z,23.13
2023-04-10T08:29:27.367Z,21.33
2023-04-10T08:31:54.249Z,21.10
2023-04-10T08:34:20.267Z,19.33
2023-04-10T08:36:46.603Z,20.90
2023-04-10T08:39:12.663Z,20.20
2023-04-10T08:41:40.498Z,21.08
2023-04-10T08:44:06.402Z,20.35
2023-04-10T08:46:35.581Z,19.30
2023-04-10T08:49:03.989Z,18.33
2023-04-10T08:51:42.767Z,21.42
2023-04-10T08:54:19.043Z,18.48
2023-04-10T08:56:48.808Z,17.92
2023-04-10T08:59:15.021Z,17.70
2023-04-10T09:01:41.127Z,17.73
2023-04-10T09:04:07.225Z,16.13
2023-04-10T09:06:33.052Z,17.13
2023-04-10T09:11:55.827Z,15.98
2023-04-10T09:14:21.964Z,17.02
2023-04-10T09:16:51.501Z,14.98
2023-04-10T09:19:37.624Z,15.98
2023-04-10T09:22:03.610Z,14.93
2023-04-10T09:24:29.494Z,15.30
2023-04-10T09:26:55.314Z,15.07
2023-04-10T09:29:21.224Z,16.15
2023-04-10T09:31:47.112Z,14.20
2023-04-10T09:34:21.686Z,14.82
2023-04-10T09:36:54.351Z,14.70
2023-04-10T09:39:20.527Z,16.35
2023-04-10T09:41:54.761Z,13.27
2023-04-10T09:44:32.892Z,14.88
2023-04-10T09:47:17.696Z,14.95
2023-04-10T09:49:50.404Z,14.65
2023-04-10T09:52:20.790Z,14.88
2023-04-10T09:54:46.668Z,14.70
2023-04-10T09:57:17.742Z,13.05
2023-04-10T09:59:45.800Z,12.70
2023-04-10T10:02:12.938Z,14.32
2023-04-10T10:04:39.941Z,12.27
2023-04-10T10:07:05.928Z,12.90
2023-04-10T10:09:32.000Z,10.35
2023-04-10T10:11:58.173Z,10.55
2023-04-10T10:14:27.153Z,8.48
2023-04-10T10:17:07.361Z,7.10
2023-04-10T10:19:39.110Z,7.15
2023-04-10T10:22:05.288Z,8.40
2023-04-10T10:24:33.508Z,7.43
2023-04-10T10:27:01.888Z,7.95
2023-04-10T10:29:31.451Z,7.85
2023-04-10T10:31:59.291Z,8.25
2023-04-10T10:34:25.767Z,8.02
2023-04-10T10:36:51.737Z,8.30
2023-04-10T10:39:36.482Z,7.82
2023-04-10T10:42:11.529Z,7.93
2023-04-10T10:44:37.372Z,7.43
2023-04-10T10:47:27.118Z,8.48
2023-04-10T10:49:57.085Z,8.43
2023-04-10T10:52:42.337Z,11.02
2023-04-10T10:55:36.293Z,9.88
2023-04-10T10:58:04.563Z,10.63
2023-04-10T11:00:49.080Z,11.50
2023-04-10T11:03:15.014Z,10.07
2023-04-10T11:06:03.406Z,8.48
2023-04-10T11:08:32.739Z,10.75
2023-04-10T11:11:02.157Z,10.00
2023-04-10T11:13:28.168Z,10.07
2023-04-10T11:15:57.666Z,10.35
2023-04-10T11:18:42.675Z,10.57
2023-04-10T11:21:10.069Z,11.90
2023-04-10T11:23:37.111Z,11.65
2023-04-10T11:26:02.987Z,11.73
2023-04-10T11:28:32.244Z,11.18
2023-04-10T11:31:21.289Z,9.43
2023-04-10T11:33:51.506Z,10.73
2023-04-10T11:36:17.472Z,11.32
2023-04-10T11:38:56.117Z,10.20
2023-04-10T11:41:27.153Z,10.45
2023-04-10T11:43:53.047Z,10.82
2023-04-10T11:46:41.058Z,10.30
2023-04-10T11:49:09.127Z,11.55
2023-04-10T11:51:35.971Z,10.38
2023-04-10T11:54:09.831Z,9.93
2023-04-10T11:56:36.018Z,9.90
2023-04-10T11:59:06.603Z,9.18
2023-04-10T12:01:33.023Z,9.32
2023-04-10T12:03:59.202Z,8.35
2023-04-10T12:06:25.451Z,8.15
2023-04-10T12:08:51.510Z,7.93
2023-04-10T12:11:19.974Z,10.68
2023-04-10T12:13:46.546Z,8.77
2023-04-10T12:16:18.216Z,8.77
2023-04-10T12:18:47.187Z,8.43
2023-04-10T12:21:13.494Z,7.75
2023-04-10T12:23:39.428Z,8.50
2023-04-10T12:26:16.094Z,8.65
2023-04-10T12:28:48.774Z,7.93
2023-04-10T12:31:15.207Z,7.63
2023-04-10T12:33:44.802Z,7.72
2023-04-10T12:36:37.058Z,8.15
2023-04-10T12:39:03.647Z,8.00
2023-04-10T12:41:31.065Z,8.27
2023-04-10T12:44:10.650Z,7.47
2023-04-10T12:46:40.475Z,7.45
2023-04-10T12:49:13.667Z,7.35
2023-04-10T12:51:47.109Z,7.75
2023-04-10T12:54:33.541Z,7.72
2023-04-10T12:57:00.867Z,8.65
2023-04-10T12:59:28.637Z,6.97
2023-04-10T13:01:55.967Z,7.80
2023-04-10T13:04:23.168Z,7.07
2023-04-10T13:06:51.953Z,7.18
2023-04-10T13:09:17.983Z,7.32
2023-04-10T13:11:45.267Z,7.13
2023-04-10T13:14:12.415Z,7.97
2023-04-10T13:16:38.375Z,7.85
2023-04-10T13:19:04.349Z,7.10
2023-04-10T13:21:30.690Z,7.05
2023-04-10T13:23:56.919Z,6.57
2023-04-10T13:26:23.553Z,7.40
2023-04-10T13:28:49.536Z,7.13
2023-04-10T13:31:16.610Z,6.85
2023-04-10T13:33:47.604Z,6.82
2023-04-10T13:36:16.564Z,6.85
2023-04-10T13:38:42.500Z,6.97
2023-04-10T13:41:08.523Z,7.75
2023-04-10T13:43:34.534Z,6.45
2023-04-10T13:46:09.885Z,6.88
2023-04-10T13:48:40.978Z,7.75
2023-04-10T13:51:08.690Z,7.40
2023-04-10T13:53:35.726Z,7.28
2023-04-10T13:56:02.433Z,6.90
2023-04-10T13:58:31.244Z,7.18
2023-04-10T14:00:57.963Z,7.40
2023-04-10T14:03:24.001Z,7.00
2023-04-10T14:05:50.114Z,6.72
2023-04-10T14:08:17.301Z,7.10
2023-04-10T14:10:43.316Z,7.30
2023-04-10T14:13:10.920Z,7.03
2023-04-10T14:15:46.214Z,8.05
2023-04-10T14:18:12.289Z,6.35
2023-04-10T14:20:38.649Z,7.47
2023-04-10T14:23:04.732Z,7.53
2023-04-10T14:25:31.956Z,7.70
2023-04-10T14:27:59.615Z,7.68
2023-04-10T14:30:30.229Z,7.88
2023-04-10T14:35:22.206Z,7.35
2023-04-10T14:37:48.061Z,8.18
2023-04-10T14:40:13.965Z,6.60
2023-04-10T14:42:39.985Z,7.15
2023-04-10T14:45:06.644Z,6.28
2023-04-10T14:47:32.509Z,6.60
2023-04-10T14:50:00.288Z,6.97
2023-04-10T14:52:30.113Z,6.65
2023-04-10T14:54:57.111Z,6.00
2023-04-10T14:57:23.379Z,6.57
2023-04-10T14:59:49.995Z,6.00
2023-04-10T15:02:17.368Z,5.75
2023-04-10T15:04:44.246Z,6.07
2023-04-10T15:07:10.285Z,5.93
2023-04-10T15:09:36.830Z,6.20
2023-04-10T15:12:03.015Z,5.90
2023-04-10T15:14:28.845Z,5.82
2023-04-10T15:17:01.057Z,5.10
2023-04-10T15:19:27.315Z,6.28
2023-04-10T15:24:47.076Z,6.25
2023-04-10T15:27:16.149Z,5.88
2023-04-10T15:29:42.713Z,6.57
2023-04-10T15:32:11.023Z,6.53
2023-04-10T15:34:37.118Z,6.10
2023-04-10T15:37:02.991Z,5.68
2023-04-10T15:39:30.334Z,5.30
2023-04-10T15:41:59.601Z,5.32
2023-04-10T15:44:25.893Z,6.07
2023-04-10T15:46:57.039Z,5.20
2023-04-10T15:49:34.046Z,5.90
2023-04-10T15:52:02.805Z,5.70
2023-04-10T15:54:28.710Z,6.45
2023-04-10T15:56:55.420Z,5.97
2023-04-10T15:59:21.229Z,6.05
2023-04-10T16:01:47.246Z,6.57
2023-04-10T16:04:13.227Z,5.75
2023-04-10T16:06:39.333Z,6.93
2023-04-10T16:09:12.448Z,5.85
2023-04-10T16:11:49.551Z,5.82
2023-04-10T16:14:15.496Z,6.15
2023-04-10T16:16:41.389Z,5.10
2023-04-10T16:19:07.378Z,6.32
2023-04-10T16:21:33.211Z,6.03
2023-04-10T16:24:00.431Z,6.10
2023-04-10T16:26:26.303Z,5.63
2023-04-10T16:28:52.110Z,5.85
2023-04-10T16:31:18.215Z,5.00
2023-04-10T16:33:44.097Z,6.88
2023-04-10T16:36:10.091Z,5.90
2023-04-10T16:38:36.056Z,6.05
2023-04-10T16:41:02.751Z,6.40
2023-04-10T16:43:29.120Z,5.38
2023-04-10T16:46:36.396Z,4.90
2023-04-10T16:49:02.517Z,6.13
2023-04-10T16:51:28.589Z,5.53
2023-04-10T16:53:54.898Z,5.40
2023-04-10T16:56:21.358Z,5.07
2023-04-10T16:58:47.366Z,5.80
2023-04-10T17:01:14.313Z,3.97
2023-04-10T17:03:40.200Z,5.32
2023-04-10T17:06:06.161Z,6.13
2023-04-10T17:08:32.103Z,5.57
2023-04-10T17:10:57.987Z,4.78
2023-04-10T17:13:23.926Z,4.93
2023-04-10T17:15:55.923Z,6.07
2023-04-10T17:18:22.290Z,5.32
2023-04-10T17:20:48.483Z,5.20
2023-04-10T17:23:14.458Z,5.30
2023-04-10T17:25:40.965Z,5.25
2023-04-10T17:28:07.230Z,5.63
2023-04-10T17:33:14.815Z,5.60
2023-04-10T17:35:41.685Z,5.47
2023-04-10T17:38:07.960Z,5.47
2023-04-10T17:40:34.060Z,5.75
2023-04-10T17:43:00.255Z,5.57
2023-04-10T17:45:29.341Z,5.60
2023-04-10T17:47:55.102Z,6.55
2023-04-10T17:50:21.507Z,6.78
2023-04-10T17:52:47.396Z,5.70
2023-04-10T17:55:17.725Z,4.97
2023-04-10T17:57:46.418Z,5.85
2023-04-10T18:00:16.875Z,6.15
2023-04-10T18:02:46.795Z,6.03
2023-04-10T18:05:12.675Z,6.45
2023-04-10T18:07:38.605Z,6.05
2023-04-10T18:10:05.552Z,6.38
2023-04-10T18:12:31.441Z,6.07
2023-04-10T18:14:57.246Z,5.63
2023-04-10T18:17:29.307Z,6.80
2023-04-10T18:19:56.929Z,5.85
2023-04-10T18:22:22.834Z,7.22
2023-04-10T18:24:48.799Z,6.50
2023-04-10T18:29:59.897Z,7.72
2023-04-10T18:32:26.117Z,7.45
2023-04-10T18:34:52.037Z,5.88
2023-04-10T18:37:17.952Z,6.30
2023-04-10T18:39:44.970Z,6.10
2023-04-10T18:42:10.922Z,6.18
2023-04-10T18:44:37.034Z,5.85
2023-04-10T18:47:37.019Z,6.35
2023-04-10T18:50:02.932Z,8.03
2023-04-10T18:52:28.756Z,7.32
2023-04-10T18:54:54.908Z,6.38
2023-04-10T18:57:20.867Z,6.65
2023-04-10T18:59:46.765Z,6.05
2023-04-10T19:02:12.632Z,6.40
2023-04-10T19:04:38.664Z,7.50
2023-04-10T19:07:04.940Z,7.30
2023-04-10T19:09:30.697Z,6.70
2023-04-10T19:11:57.538Z,6.30
2023-04-10T19:14:23.622Z,6.70
2023-04-10T19:16:49.602Z,6.35
2023-04-10T19:19:16.013Z,6.93
2023-04-10T19:21:41.941Z,7.05
2023-04-10T19:24:07.797Z,7.30
2023-04-10T19:26:33.855Z,6.43
2023-04-10T19:29:00.306Z,6.65
2023-04-10T19:31:28.954Z,6.45
2023-04-10T19:33:55.598Z,5.70
2023-04-10T19:36:21.443Z,6.13
2023-04-10T19:38:50.330Z,5.25
2023-04-10T19:41:16.881Z,5.28
2023-04-10T19:43:43.041Z,5.18
2023-04-10T19:46:27.992Z,5.00
2023-04-10T19:48:54.306Z,5.75
2023-04-10T19:51:22.136Z,4.72
2023-04-10T19:53:48.369Z,5.13
2023-04-10T19:56:14.937Z,5.85
2023-04-10T19:58:41.634Z,5.03
2023-04-10T20:01:08.428Z,4.30
2023-04-10T20:03:35.264Z,5.03
2023-04-10T20:06:06.730Z,4.15
2023-04-10T20:08:32.746Z,5.07
2023-04-10T20:10:58.597Z,4.72
2023-04-10T20:13:24.761Z,5.22
2023-04-10T20:16:18.907Z,5.25
2023-04-10T20:18:44.797Z,4.75
2023-04-10T20:21:10.612Z,4.90
2023-04-10T20:23:36.845Z,5.05
2023-04-10T20:26:02.851Z,4.80
2023-04-10T20:28:30.798Z,5.50
2023-04-10T20:30:57.093Z,4.43
2023-04-10T20:33:24.075Z,4.47
2023-04-10T20:35:51.605Z,4.57
2023-04-10T20:38:17.692Z,4.38
2023-04-10T20:40:43.428Z,4.30
2023-04-10T20:43:12.889Z,4.05
2023-04-10T20:45:50.767Z,4.20
2023-04-10T20:48:16.532Z,4.43
2023-04-10T20:50:43.477Z,4.65
2023-04-10T20:53:09.316Z,4.95
2023-04-10T20:55:38.447Z,4.38
2023-04-10T20:58:04.736Z,5.38
2023-04-10T21:00:30.915Z,4.40
2023-04-10T21:02:56.951Z,4.95
2023-04-10T21:05:22.940Z,4.75
2023-04-10T21:07:48.718Z,4.43
2023-04-10T21:10:14.738Z,5.10
2023-04-10T21:12:40.507Z,4.68
2023-04-10T21:15:06.594Z,5.82
2023-04-10T21:17:34.624Z,4.85
2023-04-10T21:20:00.507Z,4.68
2023-04-10T21:22:28.652Z,4.93
2023-04-10T21:24:55.283Z,5.40
2023-04-10T21:27:21.200Z,5.40
2023-04-10T21:29:46.990Z,5.70
2023-04-10T21:32:13.145Z,5.38
2023-04-10T21:34:38.964Z,5.10
2023-04-10T21:37:04.781Z,5.47
2023-04-10T21:39:30.570Z,5.13
2023-04-10T21:41:56.472Z,5.32
2023-04-10T21:44:22.400Z,4.68
2023-04-10T21:46:53.286Z,5.07
2023-04-10T21:49:19.065Z,5.25
2023-04-10T21:51:45.200Z,4.57
2023-04-10T21:54:11.111Z,5.38
2023-04-10T21:56:38.112Z,4.93
2023-04-10T21:59:03.953Z,5.00
2023-04-10T22:01:29.908Z,5.07
2023-04-10T22:03:56.957Z,5.30
2023-04-10T22:06:22.874Z,4.82
2023-04-10T22:08:48.831Z,5.18
2023-04-10T22:11:14.738Z,5.03
2023-04-10T22:13:40.668Z,5.85
2023-04-10T22:16:21.867Z,5.35
2023-04-10T22:18:48.217Z,5.20
2023-04-10T22:21:13.917Z,5.32
2023-04-10T22:23:39.927Z,4.75
2023-04-10T22:26:06.081Z,5.30
2023-04-10T22:28:31.820Z,5.75
2023-04-10T22:30:57.653Z,5.35
2023-04-10T22:33:23.623Z,4.88
2023-04-10T22:35:50.894Z,5.10
2023-04-10T22:38:16.618Z,5.00
2023-04-10T22:40:42.347Z,4.95
2023-04-10T22:43:09.228Z,5.72
2023-04-10T22:45:35.328Z,5.97
2023-04-10T22:48:01.324Z,5.38
2023-04-10T22:50:27.081Z,5.15
2023-04-10T22:52:52.979Z,5.00
2023-04-10T22:55:18.780Z,5.47
2023-04-10T22:57:48.695Z,5.40
2023-04-10T23:00:14.781Z,5.70
2023-04-10T23:02:40.546Z,5.00
2023-04-10T23:05:07.521Z,5.80
2023-04-10T23:07:33.287Z,5.22
2023-04-10T23:09:59.359Z,5.00
2023-04-10T23:12:26.325Z,5.85
2023-04-10T23:14:52.137Z,5.65
2023-04-10T23:17:18.786Z,5.28
2023-04-10T23:19:44.565Z,5.82
2023-04-10T23:22:10.559Z,5.55
2023-04-10T23:24:37.861Z,6.22
2023-04-10T23:27:06.094Z,5.55
2023-04-10T23:29:32.183Z,4.78
2023-04-10T23:31:57.916Z,5.30
2023-04-10T23:34:25.858Z,5.22
2023-04-10T23:36:51.722Z,4.90
2023-04-10T23:39:17.470Z,6.10
2023-04-10T23:41:43.276Z,4.85
2023-04-10T23:44:09.014Z,6.07
2023-04-10T23:46:34.825Z,5.90
2023-04-10T23:49:00.627Z,6.43
2023-04-10T23:51:31.231Z,5.18
2023-04-10T23:53:57.574Z,6.20
2023-04-10T23:56:28.295Z,5.13
2023-04-10T23:58:55.445Z,5.13
